sensor_id;sensor_type;location;lat;lon;timestamp;temperature;humidity
16517;DHT22;8371;52.272;9.746;2022-08-19T00:00:26;21.50;66.30
16517;DHT22;8371;52.272;9.746;2022-08-19T00:02:53;21.50;66.40
16517;DHT22;8371;52.272;9.746;2022-08-19T00:05:20;21.50;66.60
16517;DHT22;8371;52.272;9.746;2022-08-19T00:07:48;21.50;66.60
16517;DHT22;8371;52.272;9.746;2022-08-19T00:10:15;21.50;66.60
16517;DHT22;8371;52.272;9.746;2022-08-19T00:12:41;21.50;66.50
16517;DHT22;8371;52.272;9.746;2022-08-19T00:15:12;21.50;66.60
16517;DHT22;8371;52.272;9.746;2022-08-19T00:17:39;21.50;66.70
16517;DHT22;8371;52.272;9.746;2022-08-19T00:20:06;21.50;66.70
16517;DHT22;8371;52.272;9.746;2022-08-19T00:22:32;21.50;66.70
16517;DHT22;8371;52.272;9.746;2022-08-19T00:24:58;21.50;66.70
16517;DHT22;8371;52.272;9.746;2022-08-19T00:27:24;21.50;66.60
16517;DHT22;8371;52.272;9.746;2022-08-19T00:29:50;21.50;66.70
16517;DHT22;8371;52.272;9.746;2022-08-19T00:32:16;21.40;66.40
16517;DHT22;8371;52.272;9.746;2022-08-19T00:34:42;21.40;66.60
16517;DHT22;8371;52.272;9.746;2022-08-19T00:37:07;21.40;66.60
16517;DHT22;8371;52.272;9.746;2022-08-19T00:39:33;21.30;66.50
16517;DHT22;8371;52.272;9.746;2022-08-19T00:41:59;21.30;66.80
16517;DHT22;8371;52.272;9.746;2022-08-19T00:44:28;21.30;66.70
16517;DHT22;8371;52.272;9.746;2022-08-19T00:46:56;21.20;66.80
16517;DHT22;8371;52.272;9.746;2022-08-19T00:49:25;21.20;66.70
16517;DHT22;8371;52.272;9.746;2022-08-19T00:51:55;21.20;67.60
16517;DHT22;8371;52.272;9.746;2022-08-19T00:54:21;21.10;66.80
16517;DHT22;8371;52.272;9.746;2022-08-19T00:56:49;21.10;67.10
16517;DHT22;8371;52.272;9.746;2022-08-19T00:59:16;21.00;67.10
16517;DHT22;8371;52.272;9.746;2022-08-19T01:01:44;21.00;67.00
16517;DHT22;8371;52.272;9.746;2022-08-19T01:04:12;21.00;67.00
16517;DHT22;8371;52.272;9.746;2022-08-19T01:06:39;20.90;67.10
16517;DHT22;8371;52.272;9.746;2022-08-19T01:09:07;20.90;67.20
16517;DHT22;8371;52.272;9.746;2022-08-19T01:11:36;20.90;67.20
16517;DHT22;8371;52.272;9.746;2022-08-19T01:14:03;20.80;67.30
16517;DHT22;8371;52.272;9.746;2022-08-19T01:16:29;20.70;67.20
16517;DHT22;8371;52.272;9.746;2022-08-19T01:18:55;20.70;67.50
16517;DHT22;8371;52.272;9.746;2022-08-19T01:21:44;20.70;67.40
16517;DHT22;8371;52.272;9.746;2022-08-19T01:24:09;20.70;67.70
16517;DHT22;8371;52.272;9.746;2022-08-19T01:26:41;20.60;67.50
16517;DHT22;8371;52.272;9.746;2022-08-19T01:29:08;20.60;67.70
16517;DHT22;8371;52.272;9.746;2022-08-19T01:31:35;20.60;68.00
16517;DHT22;8371;52.272;9.746;2022-08-19T01:34:02;20.60;68.10
16517;DHT22;8371;52.272;9.746;2022-08-19T01:36:32;20.50;68.40
16517;DHT22;8371;52.272;9.746;2022-08-19T01:38:58;20.50;68.40
16517;DHT22;8371;52.272;9.746;2022-08-19T01:41:25;20.50;68.30
16517;DHT22;8371;52.272;9.746;2022-08-19T01:43:52;20.50;68.20
16517;DHT22;8371;52.272;9.746;2022-08-19T01:46:18;20.50;68.20
16517;DHT22;8371;52.272;9.746;2022-08-19T01:48:45;20.50;68.00
16517;DHT22;8371;52.272;9.746;2022-08-19T01:51:12;20.40;68.00
16517;DHT22;8371;52.272;9.746;2022-08-19T01:53:39;20.40;68.20
16517;DHT22;8371;52.272;9.746;2022-08-19T01:56:06;20.40;68.20
16517;DHT22;8371;52.272;9.746;2022-08-19T01:58:36;20.40;68.40
16517;DHT22;8371;52.272;9.746;2022-08-19T02:01:03;20.40;69.00
16517;DHT22;8371;52.272;9.746;2022-08-19T02:03:29;20.30;68.40
16517;DHT22;8371;52.272;9.746;2022-08-19T02:05:58;20.30;68.60
16517;DHT22;8371;52.272;9.746;2022-08-19T02:08:27;20.30;68.90
16517;DHT22;8371;52.272;9.746;2022-08-19T02:10:53;20.30;68.40
16517;DHT22;8371;52.272;9.746;2022-08-19T02:13:19;20.30;69.20
16517;DHT22;8371;52.272;9.746;2022-08-19T02:15:44;20.30;69.40
16517;DHT22;8371;52.272;9.746;2022-08-19T02:18:10;20.30;69.50
16517;DHT22;8371;52.272;9.746;2022-08-19T02:20:37;20.30;69.60
16517;DHT22;8371;52.272;9.746;2022-08-19T02:23:04;20.40;69.70
16517;DHT22;8371;52.272;9.746;2022-08-19T02:25:30;20.40;69.90
16517;DHT22;8371;52.272;9.746;2022-08-19T02:27:56;20.40;70.00
16517;DHT22;8371;52.272;9.746;2022-08-19T02:30:21;20.40;70.00
16517;DHT22;8371;52.272;9.746;2022-08-19T02:32:47;20.50;70.80
16517;DHT22;8371;52.272;9.746;2022-08-19T02:35:14;20.50;70.10
16517;DHT22;8371;52.272;9.746;2022-08-19T02:37:41;20.50;70.00
16517;DHT22;8371;52.272;9.746;2022-08-19T02:40:27;20.50;70.10
16517;DHT22;8371;52.272;9.746;2022-08-19T02:42:53;20.50;70.10
16517;DHT22;8371;52.272;9.746;2022-08-19T02:45:18;20.50;70.10
16517;DHT22;8371;52.272;9.746;2022-08-19T02:47:44;20.60;70.20
16517;DHT22;8371;52.272;9.746;2022-08-19T02:50:10;20.60;70.10
16517;DHT22;8371;52.272;9.746;2022-08-19T02:52:36;20.60;70.20
16517;DHT22;8371;52.272;9.746;2022-08-19T02:55:02;20.60;70.20
16517;DHT22;8371;52.272;9.746;2022-08-19T02:57:30;20.60;70.20
16517;DHT22;8371;52.272;9.746;2022-08-19T02:59:57;20.60;70.30
16517;DHT22;8371;52.272;9.746;2022-08-19T03:02:23;20.60;70.40
16517;DHT22;8371;52.272;9.746;2022-08-19T03:04:49;20.60;70.50
16517;DHT22;8371;52.272;9.746;2022-08-19T03:07:16;20.60;70.60
16517;DHT22;8371;52.272;9.746;2022-08-19T03:09:42;20.60;70.60
16517;DHT22;8371;52.272;9.746;2022-08-19T03:12:08;20.60;70.50
16517;DHT22;8371;52.272;9.746;2022-08-19T03:14:34;20.70;70.60
16517;DHT22;8371;52.272;9.746;2022-08-19T03:17:01;20.70;70.60
16517;DHT22;8371;52.272;9.746;2022-08-19T03:19:28;20.70;70.50
16517;DHT22;8371;52.272;9.746;2022-08-19T03:21:54;20.70;70.50
16517;DHT22;8371;52.272;9.746;2022-08-19T03:24:21;20.70;70.60
16517;DHT22;8371;52.272;9.746;2022-08-19T03:26:51;20.70;70.60
16517;DHT22;8371;52.272;9.746;2022-08-19T03:29:17;20.70;70.70
16517;DHT22;8371;52.272;9.746;2022-08-19T03:31:44;20.70;70.60
16517;DHT22;8371;52.272;9.746;2022-08-19T03:34:12;20.70;70.70
16517;DHT22;8371;52.272;9.746;2022-08-19T03:36:39;20.70;70.80
16517;DHT22;8371;52.272;9.746;2022-08-19T03:39:05;20.70;70.80
16517;DHT22;8371;52.272;9.746;2022-08-19T03:41:32;20.70;70.90
16517;DHT22;8371;52.272;9.746;2022-08-19T03:43:59;20.70;70.90
16517;DHT22;8371;52.272;9.746;2022-08-19T03:46:27;20.70;71.00
16517;DHT22;8371;52.272;9.746;2022-08-19T03:48:56;20.70;71.00
16517;DHT22;8371;52.272;9.746;2022-08-19T03:51:27;20.70;71.10
16517;DHT22;8371;52.272;9.746;2022-08-19T03:53:55;20.70;71.20
16517;DHT22;8371;52.272;9.746;2022-08-19T03:56:21;20.70;71.20
16517;DHT22;8371;52.272;9.746;2022-08-19T03:58:47;20.70;71.20
16517;DHT22;8371;52.272;9.746;2022-08-19T04:01:17;20.70;71.20
16517;DHT22;8371;52.272;9.746;2022-08-19T04:03:44;20.70;71.30
16517;DHT22;8371;52.272;9.746;2022-08-19T04:06:18;20.60;71.20
16517;DHT22;8371;52.272;9.746;2022-08-19T04:08:46;20.60;71.20
16517;DHT22;8371;52.272;9.746;2022-08-19T04:11:16;20.60;71.20
16517;DHT22;8371;52.272;9.746;2022-08-19T04:13:41;20.60;71.30
16517;DHT22;8371;52.272;9.746;2022-08-19T04:16:09;20.60;71.30
16517;DHT22;8371;52.272;9.746;2022-08-19T04:18:36;20.60;71.30
16517;DHT22;8371;52.272;9.746;2022-08-19T04:21:03;20.50;71.40
16517;DHT22;8371;52.272;9.746;2022-08-19T04:23:29;20.50;71.30
16517;DHT22;8371;52.272;9.746;2022-08-19T04:25:55;20.50;71.40
16517;DHT22;8371;52.272;9.746;2022-08-19T04:28:23;20.50;71.50
16517;DHT22;8371;52.272;9.746;2022-08-19T04:30:51;20.50;71.60
16517;DHT22;8371;52.272;9.746;2022-08-19T04:33:18;20.50;72.30
16517;DHT22;8371;52.272;9.746;2022-08-19T04:35:47;20.40;71.30
16517;DHT22;8371;52.272;9.746;2022-08-19T04:38:14;20.40;71.40
16517;DHT22;8371;52.272;9.746;2022-08-19T04:40:42;20.40;71.40
16517;DHT22;8371;52.272;9.746;2022-08-19T04:43:27;20.40;71.40
16517;DHT22;8371;52.272;9.746;2022-08-19T04:45:53;20.30;71.50
16517;DHT22;8371;52.272;9.746;2022-08-19T04:48:19;20.30;71.70
16517;DHT22;8371;52.272;9.746;2022-08-19T04:50:46;20.30;71.60
16517;DHT22;8371;52.272;9.746;2022-08-19T04:53:13;20.30;71.70
16517;DHT22;8371;52.272;9.746;2022-08-19T04:55:40;20.20;71.70
16517;DHT22;8371;52.272;9.746;2022-08-19T04:58:06;20.20;71.80
16517;DHT22;8371;52.272;9.746;2022-08-19T05:00:32;20.20;71.80
16517;DHT22;8371;52.272;9.746;2022-08-19T05:02:58;20.20;71.90
16517;DHT22;8371;52.272;9.746;2022-08-19T05:05:24;20.20;71.90
16517;DHT22;8371;52.272;9.746;2022-08-19T05:07:49;20.20;71.90
16517;DHT22;8371;52.272;9.746;2022-08-19T05:10:15;20.20;71.90
16517;DHT22;8371;52.272;9.746;2022-08-19T05:12:41;20.20;71.90
16517;DHT22;8371;52.272;9.746;2022-08-19T05:15:07;20.20;72.00
16517;DHT22;8371;52.272;9.746;2022-08-19T05:17:34;20.20;72.00
16517;DHT22;8371;52.272;9.746;2022-08-19T05:19:59;20.20;71.90
16517;DHT22;8371;52.272;9.746;2022-08-19T05:22:45;20.20;72.00
16517;DHT22;8371;52.272;9.746;2022-08-19T05:25:14;20.20;71.90
16517;DHT22;8371;52.272;9.746;2022-08-19T05:27:43;20.20;72.00
16517;DHT22;8371;52.272;9.746;2022-08-19T05:30:09;20.20;72.00
16517;DHT22;8371;52.272;9.746;2022-08-19T05:32:36;20.10;72.00
16517;DHT22;8371;52.272;9.746;2022-08-19T05:35:03;20.10;72.00
16517;DHT22;8371;52.272;9.746;2022-08-19T05:37:28;20.10;72.30
16517;DHT22;8371;52.272;9.746;2022-08-19T05:39:54;20.20;72.40
16517;DHT22;8371;52.272;9.746;2022-08-19T05:42:20;20.10;72.20
16517;DHT22;8371;52.272;9.746;2022-08-19T05:44:48;20.20;72.40
16517;DHT22;8371;52.272;9.746;2022-08-19T05:47:15;20.20;72.40
16517;DHT22;8371;52.272;9.746;2022-08-19T05:49:42;20.20;72.40
16517;DHT22;8371;52.272;9.746;2022-08-19T05:52:10;20.20;72.30
16517;DHT22;8371;52.272;9.746;2022-08-19T05:54:40;20.30;72.50
16517;DHT22;8371;52.272;9.746;2022-08-19T05:57:07;20.30;72.50
16517;DHT22;8371;52.272;9.746;2022-08-19T05:59:32;20.30;72.60
16517;DHT22;8371;52.272;9.746;2022-08-19T06:02:01;20.40;72.60
16517;DHT22;8371;52.272;9.746;2022-08-19T06:04:27;20.40;72.60
16517;DHT22;8371;52.272;9.746;2022-08-19T06:06:53;20.40;72.50
16517;DHT22;8371;52.272;9.746;2022-08-19T06:09:20;20.50;72.70
16517;DHT22;8371;52.272;9.746;2022-08-19T06:11:49;20.50;72.80
16517;DHT22;8371;52.272;9.746;2022-08-19T06:14:19;20.60;72.90
16517;DHT22;8371;52.272;9.746;2022-08-19T06:16:46;20.60;73.00
16517;DHT22;8371;52.272;9.746;2022-08-19T06:19:14;20.70;73.20
16517;DHT22;8371;52.272;9.746;2022-08-19T06:21:43;20.70;73.00
16517;DHT22;8371;52.272;9.746;2022-08-19T06:24:11;20.80;72.90
16517;DHT22;8371;52.272;9.746;2022-08-19T06:26:40;20.90;72.70
16517;DHT22;8371;52.272;9.746;2022-08-19T06:29:08;20.90;72.60
16517;DHT22;8371;52.272;9.746;2022-08-19T06:31:35;20.90;72.40
16517;DHT22;8371;52.272;9.746;2022-08-19T06:34:04;21.00;72.50
16517;DHT22;8371;52.272;9.746;2022-08-19T06:36:34;21.10;72.30
16517;DHT22;8371;52.272;9.746;2022-08-19T06:39:01;21.10;72.00
16517;DHT22;8371;52.272;9.746;2022-08-19T06:41:28;21.10;72.00
16517;DHT22;8371;52.272;9.746;2022-08-19T06:43:55;21.20;72.20
16517;DHT22;8371;52.272;9.746;2022-08-19T06:46:21;21.20;72.00
16517;DHT22;8371;52.272;9.746;2022-08-19T06:48:47;21.20;71.90
16517;DHT22;8371;52.272;9.746;2022-08-19T06:51:16;21.30;71.60
16517;DHT22;8371;52.272;9.746;2022-08-19T06:53:45;21.30;71.70
16517;DHT22;8371;52.272;9.746;2022-08-19T06:56:16;21.30;71.40
16517;DHT22;8371;52.272;9.746;2022-08-19T06:58:49;21.30;71.30
16517;DHT22;8371;52.272;9.746;2022-08-19T07:01:18;21.30;71.30
16517;DHT22;8371;52.272;9.746;2022-08-19T07:03:43;21.30;71.40
16517;DHT22;8371;52.272;9.746;2022-08-19T07:06:11;21.40;71.70
16517;DHT22;8371;52.272;9.746;2022-08-19T07:08:38;21.40;71.70
16517;DHT22;8371;52.272;9.746;2022-08-19T07:11:07;21.40;71.70
16517;DHT22;8371;52.272;9.746;2022-08-19T07:13:34;21.50;71.70
16517;DHT22;8371;52.272;9.746;2022-08-19T07:16:11;21.50;71.90
16517;DHT22;8371;52.272;9.746;2022-08-19T07:18:37;21.60;72.10
16517;DHT22;8371;52.272;9.746;2022-08-19T07:21:06;21.70;72.20
16517;DHT22;8371;52.272;9.746;2022-08-19T07:23:32;21.80;72.20
16517;DHT22;8371;52.272;9.746;2022-08-19T07:25:58;21.90;72.30
16517;DHT22;8371;52.272;9.746;2022-08-19T07:28:26;22.00;72.00
16517;DHT22;8371;52.272;9.746;2022-08-19T07:30:52;22.20;72.00
16517;DHT22;8371;52.272;9.746;2022-08-19T07:33:17;22.20;71.60
16517;DHT22;8371;52.272;9.746;2022-08-19T07:35:43;22.40;71.40
16517;DHT22;8371;52.272;9.746;2022-08-19T07:38:09;22.50;71.00
16517;DHT22;8371;52.272;9.746;2022-08-19T07:40:35;22.60;70.70
16517;DHT22;8371;52.272;9.746;2022-08-19T07:43:02;22.60;70.50
16517;DHT22;8371;52.272;9.746;2022-08-19T07:45:27;22.70;70.10
16517;DHT22;8371;52.272;9.746;2022-08-19T07:47:54;22.80;70.00
16517;DHT22;8371;52.272;9.746;2022-08-19T07:50:20;22.80;69.80
16517;DHT22;8371;52.272;9.746;2022-08-19T07:52:47;22.90;69.90
16517;DHT22;8371;52.272;9.746;2022-08-19T07:55:17;22.90;69.70
16517;DHT22;8371;52.272;9.746;2022-08-19T07:57:43;23.00;69.50
16517;DHT22;8371;52.272;9.746;2022-08-19T08:00:09;23.10;69.80
16517;DHT22;8371;52.272;9.746;2022-08-19T08:02:35;23.20;69.70
16517;DHT22;8371;52.272;9.746;2022-08-19T08:05:00;23.30;69.50
16517;DHT22;8371;52.272;9.746;2022-08-19T08:07:45;23.40;69.50
16517;DHT22;8371;52.272;9.746;2022-08-19T08:10:29;23.50;69.10
16517;DHT22;8371;52.272;9.746;2022-08-19T08:12:55;23.60;68.80
16517;DHT22;8371;52.272;9.746;2022-08-19T08:15:20;23.70;68.60
16517;DHT22;8371;52.272;9.746;2022-08-19T08:17:46;23.80;68.40
16517;DHT22;8371;52.272;9.746;2022-08-19T08:20:13;23.90;68.80
16517;DHT22;8371;52.272;9.746;2022-08-19T08:22:44;24.00;67.80
16517;DHT22;8371;52.272;9.746;2022-08-19T08:25:29;24.10;67.50
16517;DHT22;8371;52.272;9.746;2022-08-19T08:27:55;24.20;67.40
16517;DHT22;8371;52.272;9.746;2022-08-19T08:30:24;24.30;67.10
16517;DHT22;8371;52.272;9.746;2022-08-19T08:32:51;24.30;66.60
16517;DHT22;8371;52.272;9.746;2022-08-19T08:35:20;24.40;66.40
16517;DHT22;8371;52.272;9.746;2022-08-19T08:37:47;24.40;66.00
16517;DHT22;8371;52.272;9.746;2022-08-19T08:40:44;24.50;66.00
16517;DHT22;8371;52.272;9.746;2022-08-19T08:43:23;24.50;65.60
16517;DHT22;8371;52.272;9.746;2022-08-19T08:46:18;24.50;65.20
16517;DHT22;8371;52.272;9.746;2022-08-19T08:50:02;24.50;64.90
16517;DHT22;8371;52.272;9.746;2022-08-19T08:51:42;24.50;64.80
16517;DHT22;8371;52.272;9.746;2022-08-19T08:54:10;24.50;64.80
16517;DHT22;8371;52.272;9.746;2022-08-19T08:56:41;24.50;65.00
16517;DHT22;8371;52.272;9.746;2022-08-19T08:59:24;24.50;65.00
16517;DHT22;8371;52.272;9.746;2022-08-19T09:01:49;24.50;64.90
16517;DHT22;8371;52.272;9.746;2022-08-19T09:04:15;24.60;64.90
16517;DHT22;8371;52.272;9.746;2022-08-19T09:06:49;24.70;65.00
16517;DHT22;8371;52.272;9.746;2022-08-19T09:12:25;24.90;65.20
16517;DHT22;8371;52.272;9.746;2022-08-19T09:14:58;25.10;65.40
16517;DHT22;8371;52.272;9.746;2022-08-19T09:17:28;25.40;65.70
16517;DHT22;8371;52.272;9.746;2022-08-19T09:20:19;25.70;65.50
16517;DHT22;8371;52.272;9.746;2022-08-19T09:22:42;26.00;65.00
16517;DHT22;8371;52.272;9.746;2022-08-19T09:25:15;26.40;64.20
16517;DHT22;8371;52.272;9.746;2022-08-19T09:27:41;26.70;63.50
16517;DHT22;8371;52.272;9.746;2022-08-19T09:30:14;26.90;62.70
16517;DHT22;8371;52.272;9.746;2022-08-19T09:32:36;27.20;62.50
16517;DHT22;8371;52.272;9.746;2022-08-19T09:35:04;27.40;62.40
16517;DHT22;8371;52.272;9.746;2022-08-19T09:37:31;27.70;62.20
16517;DHT22;8371;52.272;9.746;2022-08-19T09:39:57;28.00;61.40
16517;DHT22;8371;52.272;9.746;2022-08-19T09:42:23;28.20;60.50
16517;DHT22;8371;52.272;9.746;2022-08-19T09:44:48;28.40;60.20
16517;DHT22;8371;52.272;9.746;2022-08-19T09:47:14;28.50;60.00
16517;DHT22;8371;52.272;9.746;2022-08-19T09:49:41;28.70;59.60
16517;DHT22;8371;52.272;9.746;2022-08-19T09:52:10;28.90;59.20
16517;DHT22;8371;52.272;9.746;2022-08-19T09:54:37;29.10;59.20
16517;DHT22;8371;52.272;9.746;2022-08-19T09:57:03;29.30;58.60
16517;DHT22;8371;52.272;9.746;2022-08-19T09:59:29;29.50;58.10
16517;DHT22;8371;52.272;9.746;2022-08-19T10:01:55;29.60;57.30
16517;DHT22;8371;52.272;9.746;2022-08-19T10:04:21;29.70;57.00
16517;DHT22;8371;52.272;9.746;2022-08-19T10:06:48;29.80;56.40
16517;DHT22;8371;52.272;9.746;2022-08-19T10:09:16;29.90;55.90
16517;DHT22;8371;52.272;9.746;2022-08-19T10:11:44;29.90;55.90
16517;DHT22;8371;52.272;9.746;2022-08-19T10:14:12;30.00;55.80
16517;DHT22;8371;52.272;9.746;2022-08-19T10:16:37;30.00;55.70
16517;DHT22;8371;52.272;9.746;2022-08-19T10:19:04;30.10;55.10
16517;DHT22;8371;52.272;9.746;2022-08-19T10:21:32;30.20;54.60
16517;DHT22;8371;52.272;9.746;2022-08-19T10:24:00;30.30;54.80
16517;DHT22;8371;52.272;9.746;2022-08-19T10:29:01;30.30;54.30
16517;DHT22;8371;52.272;9.746;2022-08-19T10:31:29;30.40;53.10
16517;DHT22;8371;52.272;9.746;2022-08-19T10:33:56;30.40;53.30
16517;DHT22;8371;52.272;9.746;2022-08-19T10:36:30;30.40;52.70
16517;DHT22;8371;52.272;9.746;2022-08-19T10:38:59;30.40;52.30
16517;DHT22;8371;52.272;9.746;2022-08-19T10:41:32;30.40;52.50
16517;DHT22;8371;52.272;9.746;2022-08-19T10:44:01;30.30;52.30
16517;DHT22;8371;52.272;9.746;2022-08-19T10:46:28;30.40;52.60
16517;DHT22;8371;52.272;9.746;2022-08-19T10:48:56;30.40;52.10
16517;DHT22;8371;52.272;9.746;2022-08-19T10:51:22;30.40;52.10
16517;DHT22;8371;52.272;9.746;2022-08-19T10:54:06;30.50;52.20
16517;DHT22;8371;52.272;9.746;2022-08-19T10:56:33;30.50;51.80
16517;DHT22;8371;52.272;9.746;2022-08-19T10:59:26;30.50;52.00
16517;DHT22;8371;52.272;9.746;2022-08-19T11:02:04;30.50;51.30
16517;DHT22;8371;52.272;9.746;2022-08-19T11:04:30;30.50;51.10
16517;DHT22;8371;52.272;9.746;2022-08-19T11:06:57;30.50;50.80
16517;DHT22;8371;52.272;9.746;2022-08-19T11:09:24;30.50;51.30
16517;DHT22;8371;52.272;9.746;2022-08-19T11:11:51;30.50;50.10
16517;DHT22;8371;52.272;9.746;2022-08-19T11:14:19;30.50;49.40
16517;DHT22;8371;52.272;9.746;2022-08-19T11:16:49;30.50;49.30
16517;DHT22;8371;52.272;9.746;2022-08-19T11:19:16;30.40;49.30
16517;DHT22;8371;52.272;9.746;2022-08-19T11:21:47;30.40;49.20
16517;DHT22;8371;52.272;9.746;2022-08-19T11:24:16;30.30;49.40
16517;DHT22;8371;52.272;9.746;2022-08-19T11:26:43;30.30;49.30
16517;DHT22;8371;52.272;9.746;2022-08-19T11:29:11;30.30;49.70
16517;DHT22;8371;52.272;9.746;2022-08-19T11:31:42;30.30;49.40
16517;DHT22;8371;52.272;9.746;2022-08-19T11:34:10;30.40;49.00
16517;DHT22;8371;52.272;9.746;2022-08-19T11:36:39;30.40;49.20
16517;DHT22;8371;52.272;9.746;2022-08-19T11:39:07;30.40;48.80
16517;DHT22;8371;52.272;9.746;2022-08-19T11:41:33;30.50;48.80
16517;DHT22;8371;52.272;9.746;2022-08-19T11:43:59;30.50;48.80
16517;DHT22;8371;52.272;9.746;2022-08-19T11:46:26;30.60;48.60
16517;DHT22;8371;52.272;9.746;2022-08-19T11:48:54;30.60;48.10
16517;DHT22;8371;52.272;9.746;2022-08-19T11:51:22;30.70;48.20
16517;DHT22;8371;52.272;9.746;2022-08-19T11:53:50;30.70;48.00
16517;DHT22;8371;52.272;9.746;2022-08-19T11:56:17;30.80;48.00
16517;DHT22;8371;52.272;9.746;2022-08-19T11:58:44;30.90;48.00
16517;DHT22;8371;52.272;9.746;2022-08-19T12:01:15;31.00;48.10
16517;DHT22;8371;52.272;9.746;2022-08-19T12:03:42;31.10;47.50
16517;DHT22;8371;52.272;9.746;2022-08-19T12:06:12;31.20;46.90
16517;DHT22;8371;52.272;9.746;2022-08-19T12:08:41;31.20;46.50
16517;DHT22;8371;52.272;9.746;2022-08-19T12:11:09;31.20;46.10
16517;DHT22;8371;52.272;9.746;2022-08-19T12:13:36;31.30;46.30
16517;DHT22;8371;52.272;9.746;2022-08-19T12:16:12;31.30;46.30
16517;DHT22;8371;52.272;9.746;2022-08-19T12:18:39;31.30;45.90
16517;DHT22;8371;52.272;9.746;2022-08-19T12:21:07;31.40;45.90
16517;DHT22;8371;52.272;9.746;2022-08-19T12:23:33;31.30;45.40
16517;DHT22;8371;52.272;9.746;2022-08-19T12:25:59;31.40;45.70
16517;DHT22;8371;52.272;9.746;2022-08-19T12:28:24;31.40;45.30
16517;DHT22;8371;52.272;9.746;2022-08-19T12:30:51;31.40;45.00
16517;DHT22;8371;52.272;9.746;2022-08-19T12:33:18;31.30;45.00
16517;DHT22;8371;52.272;9.746;2022-08-19T12:35:45;31.30;44.80
16517;DHT22;8371;52.272;9.746;2022-08-19T12:38:12;31.30;44.90
16517;DHT22;8371;52.272;9.746;2022-08-19T12:40:38;31.30;44.70
16517;DHT22;8371;52.272;9.746;2022-08-19T12:43:08;31.30;44.40
16517;DHT22;8371;52.272;9.746;2022-08-19T12:45:34;31.20;44.60
16517;DHT22;8371;52.272;9.746;2022-08-19T12:48:00;31.20;44.10
16517;DHT22;8371;52.272;9.746;2022-08-19T12:50:26;31.20;44.50
16517;DHT22;8371;52.272;9.746;2022-08-19T12:52:52;31.10;44.30
16517;DHT22;8371;52.272;9.746;2022-08-19T12:55:17;31.20;44.00
16517;DHT22;8371;52.272;9.746;2022-08-19T12:57:45;31.20;43.70
16517;DHT22;8371;52.272;9.746;2022-08-19T13:00:13;31.20;43.80
16517;DHT22;8371;52.272;9.746;2022-08-19T13:02:42;31.20;43.30
16517;DHT22;8371;52.272;9.746;2022-08-19T13:05:11;31.20;44.00
16517;DHT22;8371;52.272;9.746;2022-08-19T13:07:39;31.30;43.30
16517;DHT22;8371;52.272;9.746;2022-08-19T13:10:07;31.30;43.10
16517;DHT22;8371;52.272;9.746;2022-08-19T13:12:33;31.30;42.60
16517;DHT22;8371;52.272;9.746;2022-08-19T13:14:59;31.20;43.00
16517;DHT22;8371;52.272;9.746;2022-08-19T13:17:24;31.20;43.00
16517;DHT22;8371;52.272;9.746;2022-08-19T13:19:50;31.20;42.80
16517;DHT22;8371;52.272;9.746;2022-08-19T13:22:16;31.30;43.10
16517;DHT22;8371;52.272;9.746;2022-08-19T13:24:42;31.30;43.00
16517;DHT22;8371;52.272;9.746;2022-08-19T13:27:08;31.40;42.70
16517;DHT22;8371;52.272;9.746;2022-08-19T13:29:34;31.40;42.80
16517;DHT22;8371;52.272;9.746;2022-08-19T13:32:18;31.50;42.90
16517;DHT22;8371;52.272;9.746;2022-08-19T13:35:03;31.60;43.00
16517;DHT22;8371;52.272;9.746;2022-08-19T13:37:29;31.70;42.70
16517;DHT22;8371;52.272;9.746;2022-08-19T13:40:18;31.90;42.30
16517;DHT22;8371;52.272;9.746;2022-08-19T13:42:48;32.00;42.60
16517;DHT22;8371;52.272;9.746;2022-08-19T13:45:16;32.20;42.50
16517;DHT22;8371;52.272;9.746;2022-08-19T13:47:48;32.20;41.60
16517;DHT22;8371;52.272;9.746;2022-08-19T13:50:17;32.40;41.40
16517;DHT22;8371;52.272;9.746;2022-08-19T13:52:44;32.50;41.00
16517;DHT22;8371;52.272;9.746;2022-08-19T13:55:11;32.40;41.10
16517;DHT22;8371;52.272;9.746;2022-08-19T13:57:37;32.50;41.30
16517;DHT22;8371;52.272;9.746;2022-08-19T14:00:09;32.60;41.00
16517;DHT22;8371;52.272;9.746;2022-08-19T14:02:37;32.60;40.90
16517;DHT22;8371;52.272;9.746;2022-08-19T14:05:05;32.60;40.70
16517;DHT22;8371;52.272;9.746;2022-08-19T14:07:31;32.70;40.80
16517;DHT22;8371;52.272;9.746;2022-08-19T14:09:57;32.80;40.90
16517;DHT22;8371;52.272;9.746;2022-08-19T14:12:23;32.90;40.40
16517;DHT22;8371;52.272;9.746;2022-08-19T14:14:49;32.90;40.40
16517;DHT22;8371;52.272;9.746;2022-08-19T14:17:15;33.00;40.70
16517;DHT22;8371;52.272;9.746;2022-08-19T14:19:41;33.10;40.30
16517;DHT22;8371;52.272;9.746;2022-08-19T14:22:07;33.20;39.90
16517;DHT22;8371;52.272;9.746;2022-08-19T14:24:33;33.20;39.90
16517;DHT22;8371;52.272;9.746;2022-08-19T14:26:59;33.30;39.80
16517;DHT22;8371;52.272;9.746;2022-08-19T14:29:25;33.30;39.70
16517;DHT22;8371;52.272;9.746;2022-08-19T14:31:52;33.30;39.40
16517;DHT22;8371;52.272;9.746;2022-08-19T14:34:18;33.30;39.60
16517;DHT22;8371;52.272;9.746;2022-08-19T14:36:44;33.30;39.30
16517;DHT22;8371;52.272;9.746;2022-08-19T14:39:10;33.40;39.20
16517;DHT22;8371;52.272;9.746;2022-08-19T14:41:39;33.40;39.30
16517;DHT22;8371;52.272;9.746;2022-08-19T14:44:05;33.50;38.80
16517;DHT22;8371;52.272;9.746;2022-08-19T14:46:31;33.50;39.40
16517;DHT22;8371;52.272;9.746;2022-08-19T14:48:57;33.50;39.00
16517;DHT22;8371;52.272;9.746;2022-08-19T14:51:24;33.50;38.70
16517;DHT22;8371;52.272;9.746;2022-08-19T14:53:52;33.60;38.90
16517;DHT22;8371;52.272;9.746;2022-08-19T14:56:21;33.60;38.30
16517;DHT22;8371;52.272;9.746;2022-08-19T14:58:48;33.70;38.10
16517;DHT22;8371;52.272;9.746;2022-08-19T15:01:16;33.70;38.10
16517;DHT22;8371;52.272;9.746;2022-08-19T15:03:42;33.70;37.70
16517;DHT22;8371;52.272;9.746;2022-08-19T15:06:08;33.80;37.60
16517;DHT22;8371;52.272;9.746;2022-08-19T15:08:36;33.70;37.30
16517;DHT22;8371;52.272;9.746;2022-08-19T15:11:10;33.60;37.20
16517;DHT22;8371;52.272;9.746;2022-08-19T15:13:36;33.60;37.70
16517;DHT22;8371;52.272;9.746;2022-08-19T15:16:02;33.50;37.40
16517;DHT22;8371;52.272;9.746;2022-08-19T15:18:28;33.40;37.40
16517;DHT22;8371;52.272;9.746;2022-08-19T15:20:53;33.40;37.20
16517;DHT22;8371;52.272;9.746;2022-08-19T15:23:20;33.30;37.50
16517;DHT22;8371;52.272;9.746;2022-08-19T15:25:46;33.30;37.50
16517;DHT22;8371;52.272;9.746;2022-08-19T15:28:12;33.30;37.50
16517;DHT22;8371;52.272;9.746;2022-08-19T15:30:39;33.30;37.20
16517;DHT22;8371;52.272;9.746;2022-08-19T15:33:06;33.40;37.00
16517;DHT22;8371;52.272;9.746;2022-08-19T15:35:32;33.40;36.60
16517;DHT22;8371;52.272;9.746;2022-08-19T15:37:57;33.40;36.70
16517;DHT22;8371;52.272;9.746;2022-08-19T15:40:25;33.40;36.70
16517;DHT22;8371;52.272;9.746;2022-08-19T15:42:52;33.40;36.40
16517;DHT22;8371;52.272;9.746;2022-08-19T15:45:20;33.30;36.40
16517;DHT22;8371;52.272;9.746;2022-08-19T15:47:47;33.30;36.10
16517;DHT22;8371;52.272;9.746;2022-08-19T15:50:15;33.20;36.20
16517;DHT22;8371;52.272;9.746;2022-08-19T15:52:53;33.00;36.20
16517;DHT22;8371;52.272;9.746;2022-08-19T15:55:21;33.00;36.60